sensor_id;sensor_type;location;lat;lon;timestamp;P1;durP1;ratioP1;P2;durP2;ratioP2
31002;SDS011;23051;-6.372;106.786;2022-08-04T00:09:59;15.70;;;4.85;;
31002;SDS011;23051;-6.372;106.786;2022-08-04T00:12:01;4.75;;;4.22;;
31002;SDS011;23051;-6.372;106.786;2022-08-04T00:14:06;9.57;;;5.85;;
31002;SDS011;23051;-6.372;106.786;2022-08-04T00:16:09;8.43;;;4.90;;
31002;SDS011;23051;-6.372;106.786;2022-08-04T00:18:14;4.40;;;4.10;;
31002;SDS011;23051;-6.372;106.786;2022-08-04T00:20:16;10.25;;;5.90;;
31002;SDS011;23051;-6.372;106.786;2022-08-04T00:22:21;9.10;;;6.22;;
31002;SDS011;23051;-6.372;106.786;2022-08-04T00:24:23;17.42;;;5.45;;
31002;SDS011;23051;-6.372;106.786;2022-08-04T00:26:28;25.80;;;7.63;;
31002;SDS011;23051;-6.372;106.786;2022-08-04T00:28:33;21.48;;;9.20;;
31002;SDS011;23051;-6.372;106.786;2022-08-04T00:30:40;4.47;;;3.17;;
31002;SDS011;23051;-6.372;106.786;2022-08-04T00:32:45;7.15;;;5.03;;
31002;SDS011;23051;-6.372;106.786;2022-08-04T00:34:52;9.63;;;7.30;;
31002;SDS011;23051;-6.372;106.786;2022-08-04T00:36:54;16.90;;;7.10;;
31002;SDS011;23051;-6.372;106.786;2022-08-04T00:38:56;14.27;;;7.15;;
31002;SDS011;23051;-6.372;106.786;2022-08-04T00:49:21;12.38;;;7.15;;
31002;SDS011;23051;-6.372;106.786;2022-08-04T00:53:34;14.32;;;6.32;;
31002;SDS011;23051;-6.372;106.786;2022-08-04T00:55:43;18.08;;;7.93;;
31002;SDS011;23051;-6.372;106.786;2022-08-04T01:02:05;11.15;;;7.95;;
31002;SDS011;23051;-6.372;106.786;2022-08-04T01:10:37;6.57;;;5.85;;
31002;SDS011;23051;-6.372;106.786;2022-08-04T01:17:13;10.43;;;6.88;;
31002;SDS011;23051;-6.372;106.786;2022-08-04T01:25:35;15.13;;;6.05;;
31002;SDS011;23051;-6.372;106.786;2022-08-04T01:29:52;9.05;;;6.75;;
31002;SDS011;23051;-6.372;106.786;2022-08-04T01:34:01;10.00;;;5.30;;
31002;SDS011;23051;-6.372;106.786;2022-08-04T01:36:05;8.63;;;6.97;;
31002;SDS011;23051;-6.372;106.786;2022-08-04T01:40:16;17.40;;;6.72;;
31002;SDS011;23051;-6.372;106.786;2022-08-04T01:42:19;10.30;;;4.25;;
31002;SDS011;23051;-6.372;106.786;2022-08-04T01:44:26;9.23;;;7.35;;
31002;SDS011;23051;-6.372;106.786;2022-08-04T01:46:32;18.85;;;6.72;;
31002;SDS011;23051;-6.372;106.786;2022-08-04T01:48:34;11.32;;;6.50;;
31002;SDS011;23051;-6.372;106.786;2022-08-04T01:50:41;15.68;;;8.38;;
31002;SDS011;23051;-6.372;106.786;2022-08-04T01:52:44;8.18;;;7.43;;
31002;SDS011;23051;-6.372;106.786;2022-08-04T01:54:45;15.88;;;8.13;;
31002;SDS011;23051;-6.372;106.786;2022-08-04T01:56:49;7.97;;;7.25;;
31002;SDS011;23051;-6.372;106.786;2022-08-04T01:58:51;9.38;;;5.70;;
31002;SDS011;23051;-6.372;106.786;2022-08-04T02:03:01;20.77;;;10.80;;
31002;SDS011;23051;-6.372;106.786;2022-08-04T02:05:03;15.30;;;8.63;;
31002;SDS011;23051;-6.372;106.786;2022-08-04T02:07:13;12.20;;;8.00;;
31002;SDS011;23051;-6.372;106.786;2022-08-04T02:11:24;11.77;;;7.18;;
31002;SDS011;23051;-6.372;106.786;2022-08-04T02:13:26;22.42;;;10.27;;
31002;SDS011;23051;-6.372;106.786;2022-08-04T02:17:39;14.88;;;9.13;;
31002;SDS011;23051;-6.372;106.786;2022-08-04T02:19:53;8.38;;;7.00;;
31002;SDS011;23051;-6.372;106.786;2022-08-04T02:24:06;22.05;;;7.65;;
31002;SDS011;23051;-6.372;106.786;2022-08-04T02:26:21;9.88;;;6.88;;
31002;SDS011;23051;-6.372;106.786;2022-08-04T02:30:32;20.63;;;7.85;;
31002;SDS011;23051;-6.372;106.786;2022-08-04T02:32:37;6.80;;;5.72;;
31002;SDS011;23051;-6.372;106.786;2022-08-04T02:34:47;27.67;;;8.27;;
31002;SDS011;23051;-6.372;106.786;2022-08-04T02:36:51;10.57;;;9.00;;
31002;SDS011;23051;-6.372;106.786;2022-08-04T02:38:58;23.85;;;8.57;;
31002;SDS011;23051;-6.372;106.786;2022-08-04T02:41:05;11.00;;;6.68;;
31002;SDS011;23051;-6.372;106.786;2022-08-04T02:43:08;9.65;;;7.07;;
31002;SDS011;23051;-6.372;106.786;2022-08-04T02:45:10;13.60;;;7.25;;
31002;SDS011;23051;-6.372;106.786;2022-08-04T02:47:14;22.77;;;8.38;;
31002;SDS011;23051;-6.372;106.786;2022-08-04T02:49:18;21.70;;;7.18;;
31002;SDS011;23051;-6.372;106.786;2022-08-04T02:51:26;7.20;;;6.13;;
31002;SDS011;23051;-6.372;106.786;2022-08-04T02:53:29;17.23;;;9.20;;
31002;SDS011;23051;-6.372;106.786;2022-08-04T02:57:32;11.95;;;6.43;;
31002;SDS011;23051;-6.372;106.786;2022-08-04T03:00:08;14.13;;;6.72;;
31002;SDS011;23051;-6.372;106.786;2022-08-04T03:01:57;9.60;;;8.55;;
31002;SDS011;23051;-6.372;106.786;2022-08-04T03:08:23;18.85;;;9.35;;
31002;SDS011;23051;-6.372;106.786;2022-08-04T03:16:44;14.32;;;7.45;;
31002;SDS011;23051;-6.372;106.786;2022-08-04T03:19:02;18.00;;;8.15;;
31002;SDS011;23051;-6.372;106.786;2022-08-04T03:27:28;17.67;;;9.65;;
31002;SDS011;23051;-6.372;106.786;2022-08-04T03:48:12;13.93;;;7.75;;
31002;SDS011;23051;-6.372;106.786;2022-08-04T03:50:28;8.30;;;7.60;;
31002;SDS011;23051;-6.372;106.786;2022-08-04T04:13:28;17.85;;;8.82;;
31002;SDS011;23051;-6.372;106.786;2022-08-04T04:17:51;13.50;;;10.50;;
31002;SDS011;23051;-6.372;106.786;2022-08-04T04:24:11;8.68;;;7.82;;
31002;SDS011;23051;-6.372;106.786;2022-08-04T04:29:01;15.68;;;7.45;;
31002;SDS011;23051;-6.372;106.786;2022-08-04T04:35:01;10.77;;;7.63;;
31002;SDS011;23051;-6.372;106.786;2022-08-04T04:39:15;16.27;;;6.45;;
31002;SDS011;23051;-6.372;106.786;2022-08-04T04:55:50;11.00;;;8.85;;
31002;SDS011;23051;-6.372;106.786;2022-08-04T04:57:55;16.58;;;9.15;;
31002;SDS011;23051;-6.372;106.786;2022-08-04T05:00:01;9.93;;;7.05;;
31002;SDS011;23051;-6.372;106.786;2022-08-04T05:02:06;14.77;;;8.02;;
31002;SDS011;23051;-6.372;106.786;2022-08-04T05:08:34;13.43;;;8.90;;
31002;SDS011;23051;-6.372;106.786;2022-08-04T05:12:50;11.82;;;7.63;;
31002;SDS011;23051;-6.372;106.786;2022-08-04T05:17:00;21.50;;;7.82;;
31002;SDS011;23051;-6.372;106.786;2022-08-04T05:23:18;19.05;;;10.85;;
31002;SDS011;23051;-6.372;106.786;2022-08-04T05:25:22;17.08;;;10.80;;
31002;SDS011;23051;-6.372;106.786;2022-08-04T05:27:27;26.13;;;10.80;;
31002;SDS011;23051;-6.372;106.786;2022-08-04T05:29:33;19.92;;;9.25;;
31002;SDS011;23051;-6.372;106.786;2022-08-04T05:31:43;17.05;;;9.98;;
31002;SDS011;23051;-6.372;106.786;2022-08-04T05:33:47;19.48;;;8.68;;
31002;SDS011;23051;-6.372;106.786;2022-08-04T05:35:54;18.27;;;9.27;;
31002;SDS011;23051;-6.372;106.786;2022-08-04T05:37:57;11.73;;;6.65;;
31002;SDS011;23051;-6.372;106.786;2022-08-04T05:40:05;16.33;;;8.20;;
31002;SDS011;23051;-6.372;106.786;2022-08-04T05:42:08;11.38;;;8.10;;
31002;SDS011;23051;-6.372;106.786;2022-08-04T05:44:12;15.00;;;9.52;;
31002;SDS011;23051;-6.372;106.786;2022-08-04T05:46:15;15.60;;;6.65;;
31002;SDS011;23051;-6.372;106.786;2022-08-04T05:48:17;12.55;;;8.95;;
31002;SDS011;23051;-6.372;106.786;2022-08-04T05:50:24;9.15;;;6.53;;
31002;SDS011;23051;-6.372;106.786;2022-08-04T05:52:28;8.65;;;5.75;;
31002;SDS011;23051;-6.372;106.786;2022-08-04T05:54:33;12.45;;;8.45;;
31002;SDS011;23051;-6.372;106.786;2022-08-04T05:56:38;18.63;;;7.85;;
31002;SDS011;23051;-6.372;106.786;2022-08-04T05:58:42;9.23;;;6.07;;
31002;SDS011;23051;-6.372;106.786;2022-08-04T06:00:47;12.43;;;6.43;;
31002;SDS011;23051;-6.372;106.786;2022-08-04T06:02:54;17.15;;;6.47;;
31002;SDS011;23051;-6.372;106.786;2022-08-04T06:06:59;11.68;;;8.25;;
31002;SDS011;23051;-6.372;106.786;2022-08-04T06:09:01;14.57;;;6.70;;
31002;SDS011;23051;-6.372;106.786;2022-08-04T06:11:05;17.63;;;6.72;;
31002;SDS011;23051;-6.372;106.786;2022-08-04T06:13:11;13.60;;;8.20;;
31002;SDS011;23051;-6.372;106.786;2022-08-04T06:15:16;7.78;;;6.32;;
31002;SDS011;23051;-6.372;106.786;2022-08-04T06:17:25;8.60;;;4.28;;
31002;SDS011;23051;-6.372;106.786;2022-08-04T06:19:28;15.30;;;5.90;;
31002;SDS011;23051;-6.372;106.786;2022-08-04T06:21:31;11.32;;;6.07;;
31002;SDS011;23051;-6.372;106.786;2022-08-04T06:23:35;6.28;;;5.03;;
31002;SDS011;23051;-6.372;106.786;2022-08-04T06:25:40;10.80;;;6.10;;
31002;SDS011;23051;-6.372;106.786;2022-08-04T06:27:43;12.40;;;5.82;;
31002;SDS011;23051;-6.372;106.786;2022-08-04T06:29:46;8.40;;;5.97;;
31002;SDS011;23051;-6.372;106.786;2022-08-04T06:31:51;13.00;;;7.03;;
31002;SDS011;23051;-6.372;106.786;2022-08-04T06:33:56;9.20;;;4.18;;
31002;SDS011;23051;-6.372;106.786;2022-08-04T06:38:01;6.28;;;5.72;;
31002;SDS011;23051;-6.372;106.786;2022-08-04T06:40:06;16.58;;;7.55;;
31002;SDS011;23051;-6.372;106.786;2022-08-04T06:42:12;6.80;;;4.90;;
31002;SDS011;23051;-6.372;106.786;2022-08-04T06:44:14;8.55;;;5.50;;
31002;SDS011;23051;-6.372;106.786;2022-08-04T06:46:16;8.20;;;5.60;;
31002;SDS011;23051;-6.372;106.786;2022-08-04T06:48:19;9.10;;;3.65;;
31002;SDS011;23051;-6.372;106.786;2022-08-04T06:50:22;5.38;;;4.15;;
31002;SDS011;23051;-6.372;106.786;2022-08-04T06:52:27;9.15;;;3.95;;
31002;SDS011;23051;-6.372;106.786;2022-08-04T06:54:29;6.68;;;4.68;;
31002;SDS011;23051;-6.372;106.786;2022-08-04T06:56:35;8.60;;;3.55;;
31002;SDS011;23051;-6.372;106.786;2022-08-04T06:58:42;5.55;;;4.00;;
31002;SDS011;23051;-6.372;106.786;2022-08-04T07:00:45;6.65;;;5.20;;
31002;SDS011;23051;-6.372;106.786;2022-08-04T07:02:50;10.37;;;6.57;;
31002;SDS011;23051;-6.372;106.786;2022-08-04T07:04:55;10.77;;;6.22;;
31002;SDS011;23051;-6.372;106.786;2022-08-04T07:06:57;5.97;;;5.43;;
31002;SDS011;23051;-6.372;106.786;2022-08-04T07:08:59;15.65;;;5.68;;
31002;SDS011;23051;-6.372;106.786;2022-08-04T07:11:02;5.20;;;4.77;;
31002;SDS011;23051;-6.372;106.786;2022-08-04T07:13:04;3.97;;;3.60;;
31002;SDS011;23051;-6.372;106.786;2022-08-04T07:15:07;20.38;;;6.75;;
31002;SDS011;23051;-6.372;106.786;2022-08-04T07:17:12;6.60;;;4.88;;
31002;SDS011;23051;-6.372;106.786;2022-08-04T07:19:15;10.35;;;5.85;;
31002;SDS011;23051;-6.372;106.786;2022-08-04T07:21:19;11.23;;;5.03;;
31002;SDS011;23051;-6.372;106.786;2022-08-04T07:23:25;8.85;;;4.97;;
31002;SDS011;23051;-6.372;106.786;2022-08-04T07:25:29;9.65;;;5.20;;
31002;SDS011;23051;-6.372;106.786;2022-08-04T07:27:33;8.23;;;4.13;;
31002;SDS011;23051;-6.372;106.786;2022-08-04T07:29:36;4.00;;;3.70;;
31002;SDS011;23051;-6.372;106.786;2022-08-04T07:31:40;7.70;;;5.13;;
31002;SDS011;23051;-6.372;106.786;2022-08-04T07:33:42;3.75;;;3.13;;
31002;SDS011;23051;-6.372;106.786;2022-08-04T07:35:44;4.87;;;4.27;;
31002;SDS011;23051;-6.372;106.786;2022-08-04T07:37:49;5.18;;;4.53;;
31002;SDS011;23051;-6.372;106.786;2022-08-04T07:39:51;12.18;;;4.93;;
31002;SDS011;23051;-6.372;106.786;2022-08-04T07:41:55;4.28;;;3.90;;
31002;SDS011;23051;-6.372;106.786;2022-08-04T07:43:57;8.70;;;5.18;;
31002;SDS011;23051;-6.372;106.786;2022-08-04T07:46:01;3.80;;;3.28;;
31002;SDS011;23051;-6.372;106.786;2022-08-04T07:48:03;15.43;;;5.47;;
31002;SDS011;23051;-6.372;106.786;2022-08-04T07:50:08;20.52;;;5.05;;
31002;SDS011;23051;-6.372;106.786;2022-08-04T07:52:11;4.85;;;4.05;;
31002;SDS011;23051;-6.372;106.786;2022-08-04T07:56:14;4.95;;;3.03;;
31002;SDS011;23051;-6.372;106.786;2022-08-04T07:58:19;3.03;;;2.83;;
31002;SDS011;23051;-6.372;106.786;2022-08-04T08:00:20;7.07;;;3.45;;
31002;SDS011;23051;-6.372;106.786;2022-08-04T08:02:22;4.13;;;3.75;;
31002;SDS011;23051;-6.372;106.786;2022-08-04T08:04:24;7.80;;;4.57;;
31002;SDS011;23051;-6.372;106.786;2022-08-04T08:06:30;8.05;;;3.90;;
31002;SDS011;23051;-6.372;106.786;2022-08-04T08:08:37;15.40;;;6.05;;
31002;SDS011;23051;-6.372;106.786;2022-08-04T08:10:41;2.80;;;2.53;;
31002;SDS011;23051;-6.372;106.786;2022-08-04T08:12:51;5.28;;;3.58;;
31002;SDS011;23051;-6.372;106.786;2022-08-04T08:14:55;4.75;;;3.72;;
31002;SDS011;23051;-6.372;106.786;2022-08-04T08:16:59;2.58;;;2.38;;
31002;SDS011;23051;-6.372;106.786;2022-08-04T08:19:05;11.68;;;4.28;;
31002;SDS011;23051;-6.372;106.786;2022-08-04T08:21:09;6.78;;;2.67;;
31002;SDS011;23051;-6.372;106.786;2022-08-04T08:23:13;2.90;;;2.65;;
31002;SDS011;23051;-6.372;106.786;2022-08-04T08:25:15;7.38;;;4.15;;
31002;SDS011;23051;-6.372;106.786;2022-08-04T08:27:17;9.02;;;4.20;;
31002;SDS011;23051;-6.372;106.786;2022-08-04T08:29:18;7.50;;;4.38;;
31002;SDS011;23051;-6.372;106.786;2022-08-04T08:31:23;10.00;;;4.20;;
31002;SDS011;23051;-6.372;106.786;2022-08-04T08:33:25;4.22;;;2.67;;
31002;SDS011;23051;-6.372;106.786;2022-08-04T08:35:26;3.25;;;2.30;;
31002;SDS011;23051;-6.372;106.786;2022-08-04T08:39:37;7.88;;;3.30;;
31002;SDS011;23051;-6.372;106.786;2022-08-04T08:52:11;2.22;;;1.65;;
31002;SDS011;23051;-6.372;106.786;2022-08-04T08:58:24;2.75;;;1.92;;
31002;SDS011;23051;-6.372;106.786;2022-08-04T09:00:32;3.45;;;3.15;;
31002;SDS011;23051;-6.372;106.786;2022-08-04T09:06:58;4.80;;;2.45;;
31002;SDS011;23051;-6.372;106.786;2022-08-04T09:11:11;6.03;;;3.60;;
31002;SDS011;23051;-6.372;106.786;2022-08-04T09:17:26;2.58;;;2.38;;
31002;SDS011;23051;-6.372;106.786;2022-08-04T09:28:04;4.85;;;2.90;;
31002;SDS011;23051;-6.372;106.786;2022-08-04T09:30:11;4.55;;;2.67;;
31002;SDS011;23051;-6.372;106.786;2022-08-04T09:41:06;2.35;;;2.13;;
31002;SDS011;23051;-6.372;106.786;2022-08-04T09:45:28;2.35;;;2.17;;
31002;SDS011;23051;-6.372;106.786;2022-08-04T09:53:40;2.08;;;1.48;;
31002;SDS011;23051;-6.372;106.786;2022-08-04T09:57:56;4.05;;;1.63;;
31002;SDS011;23051;-6.372;106.786;2022-08-04T10:00:01;6.07;;;2.97;;
31002;SDS011;23051;-6.372;106.786;2022-08-04T10:02:05;7.40;;;1.98;;
31002;SDS011;23051;-6.372;106.786;2022-08-04T10:04:08;2.95;;;2.75;;
31002;SDS011;23051;-6.372;106.786;2022-08-04T10:08:22;1.95;;;1.85;;
31002;SDS011;23051;-6.372;106.786;2022-08-04T10:10:33;2.30;;;2.15;;
31002;SDS011;23051;-6.372;106.786;2022-08-04T10:27:11;3.60;;;3.33;;
31002;SDS011;23051;-6.372;106.786;2022-08-04T10:31:16;7.05;;;4.32;;
31002;SDS011;23051;-6.372;106.786;2022-08-04T10:33:23;2.65;;;2.42;;
31002;SDS011;23051;-6.372;106.786;2022-08-04T10:35:31;2.85;;;2.08;;
31002;SDS011;23051;-6.372;106.786;2022-08-04T10:37:39;2.95;;;2.08;;
31002;SDS011;23051;-6.372;106.786;2022-08-04T10:39:51;3.10;;;2.90;;
31002;SDS011;23051;-6.372;106.786;2022-08-04T10:42:11;5.10;;;3.05;;
31002;SDS011;23051;-6.372;106.786;2022-08-04T10:46:28;7.10;;;5.07;;
31002;SDS011;23051;-6.372;106.786;2022-08-04T10:50:36;4.70;;;2.45;;
31002;SDS011;23051;-6.372;106.786;2022-08-04T10:52:43;3.40;;;2.97;;
31002;SDS011;23051;-6.372;106.786;2022-08-04T10:54:50;5.05;;;4.28;;
31002;SDS011;23051;-6.372;106.786;2022-08-04T10:56:59;2.55;;;2.33;;
31002;SDS011;23051;-6.372;106.786;2022-08-04T10:59:08;5.88;;;2.65;;
31002;SDS011;23051;-6.372;106.786;2022-08-04T11:01:13;3.42;;;2.95;;
31002;SDS011;23051;-6.372;106.786;2022-08-04T11:03:20;3.97;;;3.10;;
31002;SDS011;23051;-6.372;106.786;2022-08-04T11:07:29;2.75;;;2.47;;
31002;SDS011;23051;-6.372;106.786;2022-08-04T11:09:33;6.55;;;4.32;;
31002;SDS011;23051;-6.372;106.786;2022-08-04T11:11:44;4.20;;;3.88;;
31002;SDS011;23051;-6.372;106.786;2022-08-04T11:13:53;3.72;;;2.88;;
31002;SDS011;23051;-6.372;106.786;2022-08-04T11:16:01;10.90;;;2.53;;
31002;SDS011;23051;-6.372;106.786;2022-08-04T11:18:13;3.22;;;2.95;;
31002;SDS011;23051;-6.372;106.786;2022-08-04T11:20:22;1.92;;;1.80;;
31002;SDS011;23051;-6.372;106.786;2022-08-04T11:22:27;3.00;;;2.78;;
31002;SDS011;23051;-6.372;106.786;2022-08-04T11:30:50;3.97;;;2.55;;
31002;SDS011;23051;-6.372;106.786;2022-08-04T11:32:56;2.42;;;2.22;;
31002;SDS011;23051;-6.372;106.786;2022-08-04T11:35:07;3.72;;;3.17;;
31002;SDS011;23051;-6.372;106.786;2022-08-04T11:39:23;2.42;;;2.30;;
31002;SDS011;23051;-6.372;106.786;2022-08-04T11:41:23;4.63;;;2.65;;
31002;SDS011;23051;-6.372;106.786;2022-08-04T11:43:35;3.78;;;3.50;;
31002;SDS011;23051;-6.372;106.786;2022-08-04T11:45:40;9.20;;;3.38;;
31002;SDS011;23051;-6.372;106.786;2022-08-04T11:47:47;7.47;;;2.97;;
31002;SDS011;23051;-6.372;106.786;2022-08-04T11:49:53;7.93;;;2.88;;
31002;SDS011;23051;-6.372;106.786;2022-08-04T11:51:59;4.38;;;2.33;;
31002;SDS011;23051;-6.372;106.786;2022-08-04T11:54:03;4.25;;;3.20;;
31002;SDS011;23051;-6.372;106.786;2022-08-04T11:56:09;5.07;;;2.80;;
31002;SDS011;23051;-6.372;106.786;2022-08-04T11:58:12;3.88;;;1.95;;
31002;SDS011;23051;-6.372;106.786;2022-08-04T12:00:14;4.97;;;2.97;;
31002;SDS011;23051;-6.372;106.786;2022-08-04T12:06:35;4.38;;;2.78;;
31002;SDS011;23051;-6.372;106.786;2022-08-04T12:11:00;3.67;;;3.38;;
31002;SDS011;23051;-6.372;106.786;2022-08-04T12:20:15;3.10;;;2.85;;
31002;SDS011;23051;-6.372;106.786;2022-08-04T12:21:44;2.65;;;2.35;;
31002;SDS011;23051;-6.372;106.786;2022-08-04T12:23:51;5.70;;;3.08;;
31002;SDS011;23051;-6.372;106.786;2022-08-04T12:25:55;5.35;;;4.53;;
31002;SDS011;23051;-6.372;106.786;2022-08-04T12:28:04;4.22;;;2.55;;
31002;SDS011;23051;-6.372;106.786;2022-08-04T12:30:08;2.25;;;2.15;;
31002;SDS011;23051;-6.372;106.786;2022-08-04T12:32:16;3.33;;;2.28;;
31002;SDS011;23051;-6.372;106.786;2022-08-04T12:38:32;2.45;;;2.30;;
31002;SDS011;23051;-6.372;106.786;2022-08-04T12:40:39;1.88;;;1.75;;
31002;SDS011;23051;-6.372;106.786;2022-08-04T12:42:43;11.65;;;3.90;;
31002;SDS011;23051;-6.372;106.786;2022-08-04T12:44:46;2.53;;;2.30;;
31002;SDS011;23051;-6.372;106.786;2022-08-04T12:46:53;5.82;;;2.95;;
31002;SDS011;23051;-6.372;106.786;2022-08-04T12:49:01;2.67;;;2.47;;
31002;SDS011;23051;-6.372;106.786;2022-08-04T12:51:04;4.25;;;2.85;;
31002;SDS011;23051;-6.372;106.786;2022-08-04T12:53:14;2.65;;;2.45;;
31002;SDS011;23051;-6.372;106.786;2022-08-04T12:55:19;11.90;;;3.42;;
31002;SDS011;23051;-6.372;106.786;2022-08-04T12:57:21;3.55;;;2.78;;
31002;SDS011;23051;-6.372;106.786;2022-08-04T12:59:26;2.35;;;2.13;;
31002;SDS011;23051;-6.372;106.786;2022-08-04T13:01:31;2.65;;;2.45;;
31002;SDS011;23051;-6.372;106.786;2022-08-04T13:03:37;3.40;;;2.75;;
31002;SDS011;23051;-6.372;106.786;2022-08-04T13:05:43;5.25;;;1.83;;
31002;SDS011;23051;-6.372;106.786;2022-08-04T13:07:49;3.50;;;2.83;;
31002;SDS011;23051;-6.372;106.786;2022-08-04T13:09:53;2.65;;;2.10;;
31002;SDS011;23051;-6.372;106.786;2022-08-04T13:11:57;5.78;;;3.13;;
31002;SDS011;23051;-6.372;106.786;2022-08-04T13:14:00;2.40;;;2.17;;
31002;SDS011;23051;-6.372;106.786;2022-08-04T13:16:04;3.17;;;2.88;;
31002;SDS011;23051;-6.372;106.786;2022-08-04T13:18:10;3.97;;;2.95;;
31002;SDS011;23051;-6.372;106.786;2022-08-04T13:20:12;2.08;;;1.85;;
31002;SDS011;23051;-6.372;106.786;2022-08-04T13:22:24;3.97;;;3.15;;
31002;SDS011;23051;-6.372;106.786;2022-08-04T13:24:27;2.85;;;2.65;;
31002;SDS011;23051;-6.372;106.786;2022-08-04T13:26:29;2.90;;;2.03;;
31002;SDS011;23051;-6.372;106.786;2022-08-04T13:28:31;3.47;;;2.53;;
31002;SDS011;23051;-6.372;106.786;2022-08-04T13:30:34;3.15;;;2.03;;
31002;SDS011;23051;-6.372;106.786;2022-08-04T13:32:36;3.63;;;2.95;;
31002;SDS011;23051;-6.372;106.786;2022-08-04T13:34:39;3.85;;;2.53;;
31002;SDS011;23051;-6.372;106.786;2022-08-04T13:36:43;3.00;;;2.38;;
31002;SDS011;23051;-6.372;106.786;2022-08-04T13:38:52;3.20;;;2.85;;
31002;SDS011;23051;-6.372;106.786;2022-08-04T13:40:59;6.15;;;2.60;;
31002;SDS011;23051;-6.372;106.786;2022-08-04T13:43:05;3.55;;;3.25;;
31002;SDS011;23051;-6.372;106.786;2022-08-04T13:45:08;4.90;;;3.90;;
31002;SDS011;23051;-6.372;106.786;2022-08-04T13:47:17;6.53;;;2.67;;
31002;SDS011;23051;-6.372;106.786;2022-08-04T13:49:25;3.40;;;3.13;;
31002;SDS011;23051;-6.372;106.786;2022-08-04T13:51:26;3.03;;;2.22;;
31002;SDS011;23051;-6.372;106.786;2022-08-04T13:53:33;3.85;;;2.10;;
31002;SDS011;23051;-6.372;106.786;2022-08-04T13:55:37;4.50;;;3.40;;
31002;SDS011;23051;-6.372;106.786;2022-08-04T13:57:46;5.40;;;2.63;;
31002;SDS011;23051;-6.372;106.786;2022-08-04T13:59:51;6.05;;;2.83;;
31002;SDS011;23051;-6.372;106.786;2022-08-04T14:04:19;3.08;;;2.25;;
31002;SDS011;23051;-6.372;106.786;2022-08-04T14:06:49;11.65;;;2.63;;
31002;SDS011;23051;-6.372;106.786;2022-08-04T14:12:53;9.20;;;5.05;;
31002;SDS011;23051;-6.372;106.786;2022-08-04T14:14:55;4.57;;;1.73;;
31002;SDS011;23051;-6.372;106.786;2022-08-04T14:17:01;4.95;;;2.75;;
31002;SDS011;23051;-6.372;106.786;2022-08-04T14:23:11;3.97;;;3.13;;
31002;SDS011;23051;-6.372;106.786;2022-08-04T14:25:14;4.18;;;3.78;;
31002;SDS011;23051;-6.372;106.786;2022-08-04T14:27:16;4.35;;;3.97;;
31002;SDS011;23051;-6.372;106.786;2022-08-04T14:29:21;7.50;;;2.92;;
31002;SDS011;23051;-6.372;106.786;2022-08-04T14:31:26;8.75;;;3.55;;
31002;SDS011;23051;-6.372;106.786;2022-08-04T14:33:27;6.40;;;4.00;;
31002;SDS011;23051;-6.372;106.786;2022-08-04T14:35:37;4.47;;;1.95;;
31002;SDS011;23051;-6.372;106.786;2022-08-04T14:37:51;2.42;;;2.25;;
31002;SDS011;23051;-6.372;106.786;2022-08-04T14:39:52;14.77;;;4.97;;
31002;SDS011;23051;-6.372;106.786;2022-08-04T14:41:54;6.95;;;2.10;;
31002;SDS011;23051;-6.372;106.786;2022-08-04T14:43:59;7.80;;;4.50;;
31002;SDS011;23051;-6.372;106.786;2022-08-04T14:46:03;7.90;;;3.85;;
31002;SDS011;23051;-6.372;106.786;2022-08-04T14:48:08;4.93;;;2.22;;
31002;SDS011;23051;-6.372;106.786;2022-08-04T14:50:13;8.02;;;3.35;;
31002;SDS011;23051;-6.372;106.786;2022-08-04T14:56:28;2.42;;;2.28;;
31002;SDS011;23051;-6.372;106.786;2022-08-04T14:58:34;7.43;;;3.90;;
31002;SDS011;23051;-6.372;106.786;2022-08-04T15:00:35;6.15;;;2.83;;
31002;SDS011;23051;-6.372;106.786;2022-08-04T15:02:40;6.35;;;4.70;;
31002;SDS011;23051;-6.372;106.786;2022-08-04T15:04:45;2.65;;;2.45;;
31002;SDS011;23051;-6.372;106.786;2022-08-04T15:06:50;5.03;;;3.55;;
31002;SDS011;23051;-6.372;106.786;2022-08-04T15:08:53;3.47;;;3.17;;
31002;SDS011;23051;-6.372;106.786;2022-08-04T15:10:57;8.95;;;4.50;;
31002;SDS011;23051;-6.372;106.786;2022-08-04T15:13:00;2.53;;;2.40;;
31002;SDS011;23051;-6.372;106.786;2022-08-04T15:17:08;5.57;;;3.55;;
31002;SDS011;23051;-6.372;106.786;2022-08-04T15:19:11;6.03;;;3.58;;
31002;SDS011;23051;-6.372;106.786;2022-08-04T15:21:14;4.60;;;3.88;;
31002;SDS011;23051;-6.372;106.786;2022-08-04T15:25:19;3.92;;;3.40;;
31002;SDS011;23051;-6.372;106.786;2022-08-04T15:27:22;3.63;;;3.22;;
31002;SDS011;23051;-6.372;106.786;2022-08-04T15:29:45;2.45;;;2.28;;
31002;SDS011;23051;-6.372;106.786;2022-08-04T15:31:51;2.40;;;2.20;;
31002;SDS011;23051;-6.372;106.786;2022-08-04T15:33:58;4.47;;;2.95;;
31002;SDS011;23051;-6.372;106.786;2022-08-04T15:38:13;3.83;;;2.13;;
31002;SDS011;23051;-6.372;106.786;2022-08-04T15:40:21;11.63;;;4.97;;
31002;SDS011;23051;-6.372;106.786;2022-08-04T15:44:35;2.65;;;2.17;;
31002;SDS011;23051;-6.372;106.786;2022-08-04T15:48:54;3.50;;;2.08;;
31002;SDS011;23051;-6.372;106.786;2022-08-04T15:51:00;9.23;;;2.97;;
31002;SDS011;23051;-6.372;106.786;2022-08-04T15:53:05;2.17;;;2.05;;
31002;SDS011;23051;-6.372;106.786;2022-08-04T15:57:13;5.13;;;3.78;;
31002;SDS011;23051;-6.372;106.786;2022-08-04T15:59:15;8.13;;;3.72;;
31002;SDS011;23051;-6.372;106.786;2022-08-04T16:07:58;6.07;;;2.63;;
31002;SDS011;23051;-6.372;106.786;2022-08-04T16:09:50;8.32;;;2.72;;
31002;SDS011;23051;-6.372;106.786;2022-08-04T16:11:52;5.22;;;2.63;;
31002;SDS011;23051;-6.372;106.786;2022-08-04T16:16:01;4.10;;;2.63;;
31002;SDS011;23051;-6.372;106.786;2022-08-04T16:18:08;5.35;;;3.60;;
31002;SDS011;23051;-6.372;106.786;2022-08-04T16:20:12;5.30;;;3.88;;
31002;SDS011;23051;-6.372;106.786;2022-08-04T16:22:46;4.07;;;2.50;;
31002;SDS011;23051;-6.372;106.786;2022-08-04T16:26:42;3.22;;;2.47;;
31002;SDS011;23051;-6.372;106.786;2022-08-04T16:28:47;3.58;;;3.05;;
31002;SDS011;23051;-6.372;106.786;2022-08-04T16:30:49;20.25;;;4.45;;
31002;SDS011;23051;-6.372;106.786;2022-08-04T16:32:50;9.27;;;4.57;;
31002;SDS011;23051;-6.372;106.786;2022-08-04T16:34:58;2.70;;;1.75;;
31002;SDS011;23051;-6.372;106.786;2022-08-04T16:37:07;2.28;;;2.17;;
31002;SDS011;23051;-6.372;106.786;2022-08-04T16:43:18;20.02;;;3.92;;
31002;SDS011;23051;-6.372;106.786;2022-08-04T16:45:22;3.00;;;2.33;;
31002;SDS011;23051;-6.372;106.786;2022-08-04T16:49:46;3.92;;;3.55;;
31002;SDS011;23051;-6.372;106.786;2022-08-04T16:52:03;4.45;;;2.58;;
31002;SDS011;23051;-6.372;106.786;2022-08-04T16:54:10;1.75;;;1.65;;
31002;SDS011;23051;-6.372;106.786;2022-08-04T16:56:14;2.35;;;2.15;;
31002;SDS011;23051;-6.372;106.786;2022-08-04T16:58:43;4.25;;;3.80;;
31002;SDS011;23051;-6.372;106.786;2022-08-04T17:00:41;2.25;;;2.13;;
31002;SDS011;23051;-6.372;106.786;2022-08-04T17:02:45;8.88;;;2.90;;
31002;SDS011;23051;-6.372;106.786;2022-08-04T17:04:51;2.55;;;1.38;;
31002;SDS011;23051;-6.372;106.786;2022-08-04T17:06:57;4.78;;;2.72;;
31002;SDS011;23051;-6.372;106.786;2022-08-04T17:09:03;2.65;;;2.22;;
31002;SDS011;23051;-6.372;106.786;2022-08-04T17:11:07;1.95;;;1.80;;
31002;SDS011;23051;-6.372;106.786;2022-08-04T17:15:26;2.85;;;1.70;;
31002;SDS011;23051;-6.372;106.786;2022-08-04T17:17:30;2.92;;;2.72;;
31002;SDS011;23051;-6.372;106.786;2022-08-04T17:19:32;6.28;;;3.20;;
31002;SDS011;23051;-6.372;106.786;2022-08-04T17:21:34;3.05;;;2.20;;
31002;SDS011;23051;-6.372;106.786;2022-08-04T17:23:37;5.88;;;3.42;;
31002;SDS011;23051;-6.372;106.786;2022-08-04T17:25:49;7.80;;;3.50;;
31002;SDS011;23051;-6.372;106.786;2022-08-04T17:28:00;5.80;;;2.97;;